createdAt,value
2022-08-25T02:30:49.811Z,0
2022-08-25T02:31:49.738Z,0
2022-08-25T02:32:49.727Z,0
2022-08-25T02:33:49.739Z,0
2022-08-25T02:34:49.731Z,0
2022-08-25T02:35:49.750Z,0
2022-08-25T02:36:49.753Z,0
2022-08-25T02:37:49.734Z,0
2022-08-25T02:38:49.731Z,0
2022-08-25T02:39:49.769Z,0
2022-08-25T02:40:49.745Z,0
2022-08-25T02:41:49.736Z,0
2022-08-25T02:42:49.738Z,0
2022-08-25T02:43:49.733Z,0
2022-08-25T02:44:49.736Z,0
2022-08-25T02:45:49.772Z,0
2022-08-25T02:46:49.738Z,0
2022-08-25T02:47:49.734Z,0
2022-08-25T02:48:49.730Z,0
2022-08-25T02:49:49.729Z,0
2022-08-25T02:50:49.755Z,0
2022-08-25T02:51:49.743Z,0
2022-08-25T02:52:49.746Z,0
2022-08-25T02:53:49.734Z,0
2022-08-25T02:54:49.731Z,0
2022-08-25T02:55:49.757Z,0
2022-08-25T02:56:49.739Z,0
2022-08-25T02:57:49.730Z,0
2022-08-25T02:58:49.732Z,0
2022-08-25T02:59:49.732Z,0
2022-08-25T03:00:49.829Z,0
2022-08-25T03:01:49.730Z,0
2022-08-25T03:02:49.729Z,0
2022-08-25T03:03:49.806Z,0
2022-08-25T03:04:49.812Z,0
2022-08-25T03:05:49.733Z,0
2022-08-25T03:06:49.747Z,0
2022-08-25T03:07:49.730Z,0
2022-08-25T03:08:49.732Z,0
2022-08-25T03:09:49.724Z,0
2022-08-25T03:10:49.741Z,0
2022-08-25T03:11:49.735Z,0
2022-08-25T03:12:49.716Z,0
2022-08-25T03:13:49.743Z,0
2022-08-25T03:14:49.742Z,0
2022-08-25T03:15:49.748Z,0
2022-08-25T03:16:49.842Z,0
2022-08-25T03:17:50.572Z,0
2022-08-25T03:18:49.721Z,0
2022-08-25T03:19:49.713Z,0
2022-08-25T03:20:49.727Z,0
2022-08-25T03:21:49.727Z,0
2022-08-25T03:22:49.720Z,0
2022-08-25T03:23:49.717Z,0
2022-08-25T03:24:49.718Z,0
2022-08-25T03:25:49.743Z,0
2022-08-25T03:26:49.725Z,0
2022-08-25T03:27:49.723Z,0
2022-08-25T03:28:49.741Z,0
2022-08-25T03:29:49.740Z,0
2022-08-25T03:30:55.774Z,0
2022-08-25T03:31:49.951Z,0
2022-08-25T03:32:49.740Z,0
2022-08-25T03:33:49.742Z,0
2022-08-25T03:34:49.730Z,0
2022-08-25T03:35:49.738Z,0
2022-08-25T03:36:49.759Z,0
2022-08-25T03:37:49.739Z,0
2022-08-25T03:38:49.816Z,1
2022-08-25T03:39:49.793Z,1
2022-08-25T03:40:49.758Z,3
2022-08-25T03:41:49.740Z,3
2022-08-25T03:42:49.745Z,5
2022-08-25T03:43:49.744Z,5
2022-08-25T03:44:49.742Z,7
2022-08-25T03:45:49.842Z,9
2022-08-25T03:46:49.739Z,11
2022-08-25T03:47:49.740Z,14
2022-08-25T03:48:49.751Z,18
2022-08-25T03:49:49.734Z,22
2022-08-25T03:50:50.521Z,25
2022-08-25T03:51:49.762Z,29
2022-08-25T03:52:49.738Z,33
2022-08-25T03:53:49.755Z,36
2022-08-25T03:54:49.736Z,42
2022-08-25T03:55:49.759Z,47
2022-08-25T03:56:49.747Z,53
2022-08-25T03:57:49.742Z,60
2022-08-25T03:58:49.745Z,71
2022-08-25T03:59:49.750Z,82
2022-08-25T04:00:49.814Z,94
2022-08-25T04:01:54.498Z,105
2022-08-25T04:02:49.798Z,116
2022-08-25T04:03:49.745Z,125
2022-08-25T04:04:49.737Z,134
2022-08-25T04:05:49.850Z,141
2022-08-25T04:06:49.753Z,149
2022-08-25T04:07:49.733Z,149
2022-08-25T04:08:49.744Z,186
2022-08-25T04:09:49.737Z,202
2022-08-25T04:10:49.751Z,215
2022-08-25T04:11:51.985Z,228
2022-08-25T04:12:49.750Z,243
2022-08-25T04:13:49.743Z,246
2022-08-25T04:14:49.753Z,246
2022-08-25T04:15:49.755Z,265
2022-08-25T04:16:49.854Z,280
2022-08-25T04:17:51.151Z,289
2022-08-25T04:18:49.729Z,293
2022-08-25T04:19:49.747Z,283
2022-08-25T04:20:49.747Z,285
2022-08-25T04:21:49.758Z,298
2022-08-25T04:22:49.740Z,317
2022-08-25T04:23:49.752Z,337
2022-08-25T04:24:49.743Z,350
2022-08-25T04:25:49.743Z,359
2022-08-25T04:26:49.736Z,372
2022-08-25T04:27:49.733Z,376
2022-08-25T04:28:49.725Z,368
2022-08-25T04:29:49.737Z,363
2022-08-25T04:30:52.160Z,363
2022-08-25T04:31:49.809Z,374
2022-08-25T04:32:49.734Z,409
2022-08-25T04:33:49.722Z,468
2022-08-25T04:34:49.726Z,547
2022-08-25T04:35:49.737Z,610
2022-08-25T04:36:52.559Z,632
2022-08-25T04:37:49.729Z,711
2022-08-25T04:38:49.729Z,794
2022-08-25T04:39:49.763Z,868
2022-08-25T04:40:49.739Z,941
2022-08-25T04:41:49.742Z,969
2022-08-25T04:42:49.729Z,1017
2022-08-25T04:43:49.735Z,1087
2022-08-25T04:44:49.742Z,1150
2022-08-25T04:45:49.766Z,1188
2022-08-25T04:46:49.738Z,1238
2022-08-25T04:47:54.397Z,1282
2022-08-25T04:48:49.739Z,1360
2022-08-25T04:49:49.747Z,1410
2022-08-25T04:50:49.750Z,1437
2022-08-25T04:51:49.762Z,1448
2022-08-25T04:52:49.738Z,1469
2022-08-25T04:53:49.756Z,1516
2022-08-25T04:54:49.745Z,1540
2022-08-25T04:55:49.757Z,1579
2022-08-25T04:56:49.746Z,1599
2022-08-25T04:57:49.761Z,1631
2022-08-25T04:58:49.746Z,1669
2022-08-25T04:59:49.741Z,1695
2022-08-25T05:00:49.826Z,1728
2022-08-25T05:01:52.219Z,1780
2022-08-25T05:02:49.737Z,1800
2022-08-25T05:03:49.790Z,1830
2022-08-25T05:04:49.804Z,1889
2022-08-25T05:05:49.763Z,1950
2022-08-25T05:06:49.763Z,2023
2022-08-25T05:07:49.742Z,2023
2022-08-25T05:08:49.749Z,2045
2022-08-25T05:09:49.731Z,2042
2022-08-25T05:10:49.756Z,2014
2022-08-25T05:11:49.802Z,1999
2022-08-25T05:12:49.740Z,1986
2022-08-25T05:13:51.259Z,1999
2022-08-25T05:14:49.738Z,2047
2022-08-25T05:15:50.911Z,2139
2022-08-25T05:16:49.822Z,2195
2022-08-25T05:17:52.695Z,2224
2022-08-25T05:18:49.728Z,2224
2022-08-25T05:19:49.740Z,2206
2022-08-25T05:20:49.756Z,2206
2022-08-25T05:21:49.745Z,2213
2022-08-25T05:22:49.747Z,2276
2022-08-25T05:23:49.736Z,2337
2022-08-25T05:24:49.732Z,2416
2022-08-25T05:25:49.751Z,2490
2022-08-25T05:26:49.753Z,2536
2022-08-25T05:27:49.740Z,2615
2022-08-25T05:28:49.740Z,2624
2022-08-25T05:29:49.742Z,2639
2022-08-25T05:30:49.756Z,2639
2022-08-25T05:31:50.892Z,2591
2022-08-25T05:32:49.747Z,2558
2022-08-25T05:33:49.741Z,2792
2022-08-25T05:34:49.743Z,3175
2022-08-25T05:35:49.750Z,3251
2022-08-25T05:36:49.761Z,3360
2022-08-25T05:37:49.742Z,3594
2022-08-25T05:38:49.741Z,3706
2022-08-25T05:39:49.798Z,3857
2022-08-25T05:40:49.754Z,3896
2022-08-25T05:41:49.739Z,3854
2022-08-25T05:42:49.720Z,3843
2022-08-25T05:43:49.759Z,3937
2022-08-25T05:44:49.725Z,4233
2022-08-25T05:45:49.810Z,4268
2022-08-25T05:46:49.722Z,4224
2022-08-25T05:47:49.725Z,4173
2022-08-25T05:48:49.720Z,4324
2022-08-25T05:49:49.725Z,4342
2022-08-25T05:50:49.746Z,4344
2022-08-25T05:51:49.741Z,4357
2022-08-25T05:52:49.725Z,4364
2022-08-25T05:53:49.721Z,4390
2022-08-25T05:54:49.727Z,4464
2022-08-25T05:55:49.740Z,4571
2022-08-25T05:56:49.738Z,4851
2022-08-25T05:57:49.740Z,5221
2022-08-25T05:58:49.730Z,5424
2022-08-25T05:59:49.721Z,5343
2022-08-25T06:00:49.844Z,5116
2022-08-25T06:01:49.742Z,5267
2022-08-25T06:02:49.743Z,5450
2022-08-25T06:03:49.864Z,5995
2022-08-25T06:04:49.753Z,6095
2022-08-25T06:05:49.765Z,6182
2022-08-25T06:06:49.754Z,6379
2022-08-25T06:07:49.748Z,6379
2022-08-25T06:08:49.739Z,6559
2022-08-25T06:09:49.747Z,6585
2022-08-25T06:10:49.764Z,6624
2022-08-25T06:11:54.510Z,6594
2022-08-25T06:12:49.739Z,5999
2022-08-25T06:13:49.748Z,6550
2022-08-25T06:14:49.739Z,6762
2022-08-25T06:15:49.750Z,6985
2022-08-25T06:16:49.744Z,7061
2022-08-25T06:17:49.745Z,7088
2022-08-25T06:18:49.745Z,7029
2022-08-25T06:19:49.736Z,7149
2022-08-25T06:20:49.757Z,7184
2022-08-25T06:21:49.758Z,7061
2022-08-25T06:22:49.742Z,7334
2022-08-25T06:23:49.740Z,7656
2022-08-25T06:24:49.744Z,7652
2022-08-25T06:25:49.761Z,7562
2022-08-25T06:26:49.745Z,8355
2022-08-25T06:27:49.734Z,8027
2022-08-25T06:28:49.742Z,8071
2022-08-25T06:29:49.739Z,8229
2022-08-25T06:30:49.755Z,8506
2022-08-25T06:31:49.800Z,8471
2022-08-25T06:32:49.731Z,8663
2022-08-25T06:33:49.747Z,8887
2022-08-25T06:34:49.736Z,8843
2022-08-25T06:35:49.755Z,8946
2022-08-25T06:36:49.749Z,9074
2022-08-25T06:37:49.776Z,9035
2022-08-25T06:38:49.737Z,8933
2022-08-25T06:39:49.771Z,8998
2022-08-25T06:40:49.753Z,9072
2022-08-25T06:41:49.742Z,9534
2022-08-25T06:42:49.752Z,9512
2022-08-25T06:43:54.162Z,9709
2022-08-25T06:44:49.749Z,9693
2022-08-25T06:45:49.756Z,9715
2022-08-25T06:46:49.785Z,9676
2022-08-25T06:47:49.734Z,9741
2022-08-25T06:48:49.748Z,9741
2022-08-25T06:49:49.822Z,9743
2022-08-25T06:50:49.750Z,9798
2022-08-25T06:51:49.750Z,9815
2022-08-25T06:52:49.738Z,9803
2022-08-25T06:53:49.723Z,10089
2022-08-25T06:54:49.742Z,9940
2022-08-25T06:55:49.828Z,9892
2022-08-25T06:56:49.964Z,10253
2022-08-25T06:57:49.740Z,10428
2022-08-25T06:58:49.726Z,10463
2022-08-25T06:59:49.722Z,10690
2022-08-25T07:00:49.961Z,10622
2022-08-25T07:01:50.197Z,10845
2022-08-25T07:02:49.722Z,11027
2022-08-25T07:03:49.732Z,10808
2022-08-25T07:04:49.721Z,10786
2022-08-25T07:05:49.914Z,11022
2022-08-25T07:06:49.740Z,11177
2022-08-25T07:07:49.736Z,11177
2022-08-25T07:08:49.728Z,12021
2022-08-25T07:09:49.728Z,12288
2022-08-25T07:10:49.747Z,12718
2022-08-25T07:11:49.733Z,12168
2022-08-25T07:12:49.744Z,11237
2022-08-25T07:13:49.735Z,11907
2022-08-25T07:15:10.050Z,12273
2022-08-25T07:15:49.787Z,12331
2022-08-25T07:16:50.358Z,12590
2022-08-25T07:17:49.748Z,12933
2022-08-25T07:18:49.746Z,13094
2022-08-25T07:19:49.749Z,12917
2022-08-25T07:20:49.761Z,12902
2022-08-25T07:21:49.767Z,12989
2022-08-25T07:22:49.738Z,13055
2022-08-25T07:23:49.737Z,13606
2022-08-25T07:24:49.733Z,13366
2022-08-25T07:25:49.770Z,12824
2022-08-25T07:26:49.743Z,13866
2022-08-25T07:27:49.743Z,11573
2022-08-25T07:28:49.737Z,13899
2022-08-25T07:29:49.749Z,13597
2022-08-25T07:30:51.689Z,9667
2022-08-25T07:31:49.835Z,13224
2022-08-25T07:32:54.788Z,14518
2022-08-25T07:33:49.741Z,13903
2022-08-25T07:34:52.465Z,13407
2022-08-25T07:35:49.753Z,12544
2022-08-25T07:36:49.763Z,12338
2022-08-25T07:37:49.994Z,11811
2022-08-25T07:38:49.750Z,12284
2022-08-25T07:39:49.797Z,12570
2022-08-25T07:40:53.322Z,12655
2022-08-25T07:41:52.461Z,11947
2022-08-25T07:42:49.760Z,11625
2022-08-25T07:43:50.102Z,12782
2022-08-25T07:44:49.751Z,8132
2022-08-25T07:45:49.758Z,9359
2022-08-25T07:46:50.351Z,11945
2022-08-25T07:47:51.477Z,12166
2022-08-25T07:48:53.222Z,10810
2022-08-25T07:49:49.739Z,9754
2022-08-25T07:50:49.753Z,7920
2022-08-25T07:52:05.472Z,9297
2022-08-25T07:52:54.846Z,13212
2022-08-25T07:53:49.744Z,11754
2022-08-25T07:54:49.733Z,12896
2022-08-25T07:55:49.779Z,12060
2022-08-25T07:56:49.733Z,11908
2022-08-25T07:57:55.477Z,12224
2022-08-25T07:58:49.737Z,12327
2022-08-25T07:59:49.736Z,12531
2022-08-25T08:00:50.720Z,11785
2022-08-25T08:01:49.814Z,9698
2022-08-25T08:02:49.791Z,6688
2022-08-25T08:03:50.340Z,9872
2022-08-25T08:04:49.900Z,7208
2022-08-25T08:05:49.785Z,7006
2022-08-25T08:06:49.782Z,8659
2022-08-25T08:07:49.745Z,8659
2022-08-25T08:08:49.857Z,9234
2022-08-25T08:09:56.125Z,7087
2022-08-25T08:11:53.844Z,6154
2022-08-25T08:12:49.747Z,5922
2022-08-25T08:13:50.836Z,6322
2022-08-25T08:14:49.726Z,9759
2022-08-25T08:15:49.818Z,7804
2022-08-25T08:16:49.733Z,5387
2022-08-25T08:17:49.731Z,5474
2022-08-25T08:18:49.732Z,5868
2022-08-25T08:19:49.734Z,6585
2022-08-25T08:20:49.742Z,7704
2022-08-25T08:21:49.743Z,7055
2022-08-25T08:22:49.734Z,6250
2022-08-25T08:23:49.724Z,5800
2022-08-25T08:24:56.235Z,6077
2022-08-25T08:25:49.751Z,5835
2022-08-25T08:26:58.712Z,6453
2022-08-25T08:27:49.735Z,9306
2022-08-25T08:28:52.106Z,7970
2022-08-25T08:29:49.734Z,9169
2022-08-25T08:30:53.764Z,7499
2022-08-25T08:31:49.816Z,9297
2022-08-25T08:33:08.789Z,13768
2022-08-25T08:33:49.741Z,11466
2022-08-25T08:34:51.375Z,16045
2022-08-25T08:35:49.752Z,13901
2022-08-25T08:36:49.760Z,14854
2022-08-25T08:37:49.752Z,15101
2022-08-25T08:38:49.748Z,10627
2022-08-25T08:39:49.795Z,15551
2022-08-25T08:40:49.761Z,17217
2022-08-25T08:42:09.695Z,15873
2022-08-25T08:42:49.740Z,13145
2022-08-25T08:43:49.746Z,15801
2022-08-25T08:44:49.744Z,11800
2022-08-25T08:45:49.757Z,16666
2022-08-25T08:46:49.827Z,16245
2022-08-25T08:47:49.743Z,15401
2022-08-25T08:48:49.741Z,16378
2022-08-25T08:49:49.738Z,16222
2022-08-25T08:50:49.752Z,16557
2022-08-25T08:51:49.752Z,11354
2022-08-25T08:52:49.742Z,14187
2022-08-25T08:53:49.743Z,14961
2022-08-25T08:54:49.747Z,10804
2022-08-25T08:55:52.674Z,9180
2022-08-25T08:56:49.737Z,6694
2022-08-25T08:58:49.938Z,8563
2022-08-25T08:59:49.749Z,17335
2022-08-25T09:00:52.258Z,10183
2022-08-25T09:01:53.311Z,9110
2022-08-25T09:02:52.183Z,16966
2022-08-25T09:03:55.180Z,8228
2022-08-25T09:04:49.745Z,7719
2022-08-25T09:05:49.759Z,9975
2022-08-25T09:06:49.763Z,10058
2022-08-25T09:07:54.632Z,10058
2022-08-25T09:08:49.741Z,17337
2022-08-25T09:09:52.199Z,9498
2022-08-25T09:10:49.754Z,9055
2022-08-25T09:11:49.742Z,9162
2022-08-25T09:12:49.777Z,8515
2022-08-25T09:13:49.739Z,7641
2022-08-25T09:14:54.041Z,6891
2022-08-25T09:15:49.785Z,7188
2022-08-25T09:16:49.825Z,8589
2022-08-25T09:17:54.317Z,10038
2022-08-25T09:18:51.114Z,8322
2022-08-25T09:19:49.746Z,10355
2022-08-25T09:20:49.762Z,8303
2022-08-25T09:21:49.753Z,8215
2022-08-25T09:22:49.753Z,8379
2022-08-25T09:23:49.725Z,9638
2022-08-25T09:24:49.726Z,9929
2022-08-25T09:25:53.559Z,12198
2022-08-25T09:26:49.727Z,9794
2022-08-25T09:27:49.722Z,17805
2022-08-25T09:28:49.730Z,9282
2022-08-25T09:29:49.728Z,8904
2022-08-25T09:30:49.799Z,10955
2022-08-25T09:31:49.816Z,17950
2022-08-25T09:32:52.363Z,20818
2022-08-25T09:33:49.780Z,15313
2022-08-25T09:34:49.721Z,10274
2022-08-25T09:35:49.803Z,8886
2022-08-25T09:36:49.739Z,8163
2022-08-25T09:37:49.753Z,8605
2022-08-25T09:38:49.736Z,9057
2022-08-25T09:39:49.757Z,9042
2022-08-25T09:40:49.750Z,8694
2022-08-25T09:41:51.229Z,11123
2022-08-25T09:42:50.049Z,9258
2022-08-25T09:43:49.739Z,9042
2022-08-25T09:44:49.750Z,9298
2022-08-25T09:45:49.743Z,11079
2022-08-25T09:46:49.744Z,10922
2022-08-25T09:47:49.754Z,13101
2022-08-25T09:48:56.132Z,9002
2022-08-25T09:49:49.768Z,19792
2022-08-25T09:50:49.748Z,9577
2022-08-25T09:51:49.770Z,19215
2022-08-25T09:52:53.492Z,9776
2022-08-25T09:53:49.750Z,7975
2022-08-25T09:54:49.739Z,8231
2022-08-25T09:55:49.764Z,14537
2022-08-25T09:56:49.752Z,19390
2022-08-25T09:57:49.744Z,13055
2022-08-25T09:58:49.733Z,16255
2022-08-25T09:59:57.288Z,18843
2022-08-25T10:00:49.754Z,17510
2022-08-25T10:01:49.796Z,19316
2022-08-25T10:02:49.744Z,17169
2022-08-25T10:03:49.735Z,8666
2022-08-25T10:04:49.829Z,8609
2022-08-25T10:05:49.755Z,9169
2022-08-25T10:06:49.764Z,9739
2022-08-25T10:07:51.003Z,9739
2022-08-25T10:08:49.747Z,9133
2022-08-25T10:09:49.745Z,11671
2022-08-25T10:10:49.767Z,18590
2022-08-25T10:11:49.740Z,19010
2022-08-25T10:12:51.466Z,16251
2022-08-25T10:13:49.735Z,11123
2022-08-25T10:14:49.756Z,18297
2022-08-25T10:15:49.779Z,19136
2022-08-25T10:16:49.818Z,16645
2022-08-25T10:17:49.738Z,17810
2022-08-25T10:18:49.736Z,10478
2022-08-25T10:19:49.740Z,15270
2022-08-25T10:20:49.752Z,15857
2022-08-25T10:21:49.750Z,17152
2022-08-25T10:22:50.424Z,12500
2022-08-25T10:23:49.739Z,10909
2022-08-25T10:24:49.733Z,17149
2022-08-25T10:25:58.953Z,19246
2022-08-25T10:26:49.732Z,8935
2022-08-25T10:27:49.747Z,9179
2022-08-25T10:28:49.739Z,10742
2022-08-25T10:29:49.752Z,12926
2022-08-25T10:30:49.859Z,19454
2022-08-25T10:31:49.764Z,19768
2022-08-25T10:32:49.725Z,10528
2022-08-25T10:33:50.410Z,12524
2022-08-25T10:34:51.667Z,19652
2022-08-25T10:35:49.742Z,19438
2022-08-25T10:36:49.746Z,19445
2022-08-25T10:37:49.720Z,19294
2022-08-25T10:38:49.725Z,19073
2022-08-25T10:39:55.492Z,9774
2022-08-25T10:40:49.737Z,7123
2022-08-25T10:41:49.724Z,6475
2022-08-25T10:42:49.721Z,5817
2022-08-25T10:43:49.734Z,5387
2022-08-25T10:44:49.741Z,5028
2022-08-25T10:45:51.044Z,4993
2022-08-25T10:46:49.737Z,4854
2022-08-25T10:47:49.750Z,4499
2022-08-25T10:48:49.743Z,4255
2022-08-25T10:49:50.083Z,4366
2022-08-25T10:50:49.824Z,4543
2022-08-25T10:51:51.042Z,5221
2022-08-25T10:52:49.746Z,6517
2022-08-25T10:53:49.745Z,8583
2022-08-25T10:54:49.745Z,12078
2022-08-25T10:55:50.337Z,11309
2022-08-25T10:56:49.750Z,13547
2022-08-25T10:57:49.738Z,12305
2022-08-25T10:58:49.739Z,12364
2022-08-25T10:59:49.734Z,14944
2022-08-25T11:00:49.761Z,17374
2022-08-25T11:01:53.649Z,17171
2022-08-25T11:02:49.740Z,19506
2022-08-25T11:03:49.741Z,19497
2022-08-25T11:04:49.824Z,20037
2022-08-25T11:05:49.760Z,11044
2022-08-25T11:06:53.106Z,7970
2022-08-25T11:07:49.741Z,7970
2022-08-25T11:08:49.743Z,7393
2022-08-25T11:09:49.740Z,8469
2022-08-25T11:10:50.452Z,10686
2022-08-25T11:11:49.749Z,19755
2022-08-25T11:12:49.731Z,20293
2022-08-25T11:13:49.736Z,20306
2022-08-25T11:14:49.737Z,16338
2022-08-25T11:16:13.258Z,9558
2022-08-25T11:16:49.792Z,9920
2022-08-25T11:17:50.140Z,11582
2022-08-25T11:18:49.739Z,19003
2022-08-25T11:19:49.737Z,12511
2022-08-25T11:20:49.761Z,18865
2022-08-25T11:21:49.760Z,10296
2022-08-25T11:22:49.737Z,13014
2022-08-25T11:23:49.736Z,9903
2022-08-25T11:24:49.744Z,11062
2022-08-25T11:25:49.823Z,16727
2022-08-25T11:26:49.733Z,19963
2022-08-25T11:27:49.750Z,19716
2022-08-25T11:28:49.752Z,11724
2022-08-25T11:29:49.757Z,14987
2022-08-25T11:30:49.847Z,20245
2022-08-25T11:31:53.010Z,20125
2022-08-25T11:32:49.736Z,14174
2022-08-25T11:33:49.738Z,16527
2022-08-25T11:34:49.735Z,9494
2022-08-25T11:35:49.757Z,9024
2022-08-25T11:36:49.782Z,10224
2022-08-25T11:37:49.731Z,13272
2022-08-25T11:38:49.738Z,14056
2022-08-25T11:39:49.865Z,19161
2022-08-25T11:40:50.164Z,19941
2022-08-25T11:41:49.747Z,15667
2022-08-25T11:42:49.734Z,9274
2022-08-25T11:43:49.738Z,7971
2022-08-25T11:44:53.697Z,6851
2022-08-25T11:45:54.141Z,6246
2022-08-25T11:46:49.729Z,6253
2022-08-25T11:47:49.723Z,6537
2022-08-25T11:48:49.723Z,6982
2022-08-25T11:49:49.730Z,7582
2022-08-25T11:50:49.750Z,8469
2022-08-25T11:51:49.736Z,10771
2022-08-25T11:52:49.726Z,19515
2022-08-25T11:53:49.740Z,19617
2022-08-25T11:54:49.730Z,19783
2022-08-25T11:55:49.741Z,19281
2022-08-25T11:56:49.725Z,10832
2022-08-25T11:57:53.259Z,8445
2022-08-25T11:58:50.147Z,7675
2022-08-25T11:59:49.739Z,7914
2022-08-25T12:00:49.814Z,11997
2022-08-25T12:01:49.748Z,16258
2022-08-25T12:02:49.747Z,17169
2022-08-25T12:03:50.807Z,18422
2022-08-25T12:04:49.873Z,9337
2022-08-25T12:05:49.743Z,7033
2022-08-25T12:06:49.760Z,6583
2022-08-25T12:07:49.741Z,6583
2022-08-25T12:08:49.743Z,6405
2022-08-25T12:09:49.728Z,6764
2022-08-25T12:10:49.758Z,7446
2022-08-25T12:11:49.723Z,8117
2022-08-25T12:12:49.725Z,8375
2022-08-25T12:13:49.728Z,8375
2022-08-25T12:14:49.727Z,7872
2022-08-25T12:15:49.766Z,7293
2022-08-25T12:16:49.797Z,6429
2022-08-25T12:17:49.735Z,6099
2022-08-25T12:18:50.407Z,6099
2022-08-25T12:19:49.746Z,6500
2022-08-25T12:20:49.754Z,7405
2022-08-25T12:21:49.755Z,15928
2022-08-25T12:22:49.734Z,11424
2022-08-25T12:23:53.274Z,14141
2022-08-25T12:24:49.736Z,16843
2022-08-25T12:25:49.744Z,16996
2022-08-25T12:26:49.743Z,16634
2022-08-25T12:27:49.739Z,17646
2022-08-25T12:28:49.738Z,17799
2022-08-25T12:29:49.729Z,17624
2022-08-25T12:30:50.558Z,17285
2022-08-25T12:31:49.732Z,16690
2022-08-25T12:32:49.749Z,17458
2022-08-25T12:33:49.733Z,16089
2022-08-25T12:34:49.749Z,10358
2022-08-25T12:35:49.760Z,8198
2022-08-25T12:36:49.757Z,7140
2022-08-25T12:37:49.760Z,6919
2022-08-25T12:38:52.201Z,6810
2022-08-25T12:39:49.790Z,6882
2022-08-25T12:40:49.757Z,7096
2022-08-25T12:41:49.767Z,7374
2022-08-25T12:42:49.727Z,7155
2022-08-25T12:43:49.743Z,6853
2022-08-25T12:44:49.734Z,6902
2022-08-25T12:45:49.865Z,7192
2022-08-25T12:46:49.735Z,7660
2022-08-25T12:47:49.739Z,9306
2022-08-25T12:48:49.742Z,9335
2022-08-25T12:49:49.735Z,11542
2022-08-25T12:50:49.746Z,11461
2022-08-25T12:51:49.758Z,8122
2022-08-25T12:52:49.744Z,7468
2022-08-25T12:53:49.746Z,7166
2022-08-25T12:54:49.740Z,7138
2022-08-25T12:55:49.764Z,8570
2022-08-25T12:56:49.741Z,7888
2022-08-25T12:57:49.746Z,9486
2022-08-25T12:58:59.938Z,11009
2022-08-25T12:59:49.725Z,8515
2022-08-25T13:00:52.864Z,8091
2022-08-25T13:01:49.912Z,7597
2022-08-25T13:02:52.197Z,7492
2022-08-25T13:03:49.784Z,7804
2022-08-25T13:04:49.722Z,8838
2022-08-25T13:05:49.741Z,8530
2022-08-25T13:06:49.739Z,8270
2022-08-25T13:07:49.724Z,8270
2022-08-25T13:08:49.719Z,8786
2022-08-25T13:09:49.729Z,9737
2022-08-25T13:10:49.738Z,14411
2022-08-25T13:11:49.741Z,10587
2022-08-25T13:12:49.723Z,10614
2022-08-25T13:13:49.731Z,8060
2022-08-25T13:14:49.758Z,7046
2022-08-25T13:15:54.893Z,6600
2022-08-25T13:16:49.839Z,6512
2022-08-25T13:17:49.747Z,6788
2022-08-25T13:18:51.404Z,7146
2022-08-25T13:19:49.744Z,7619
2022-08-25T13:20:49.755Z,8395
2022-08-25T13:21:49.753Z,9346
2022-08-25T13:22:50.981Z,10154
2022-08-25T13:23:49.738Z,12491
2022-08-25T13:24:50.421Z,14727
2022-08-25T13:25:49.757Z,14093
2022-08-25T13:26:49.751Z,10366
2022-08-25T13:27:49.734Z,9641
2022-08-25T13:28:50.181Z,9730
2022-08-25T13:29:49.789Z,9813
2022-08-25T13:30:49.752Z,10983
2022-08-25T13:31:49.931Z,14375
2022-08-25T13:32:49.740Z,12542
2022-08-25T13:33:49.740Z,11949
2022-08-25T13:35:49.777Z,9851
2022-08-25T13:36:53.970Z,8876
2022-08-25T13:37:49.743Z,8788
2022-08-25T13:38:49.737Z,8788
2022-08-25T13:39:55.965Z,7538
2022-08-25T13:40:49.852Z,7096
2022-08-25T13:41:49.751Z,7466
2022-08-25T13:42:54.685Z,7713
2022-08-25T13:43:49.737Z,8406
2022-08-25T13:44:51.952Z,8961
2022-08-25T13:45:50.462Z,9433
2022-08-25T13:46:49.739Z,10039
2022-08-25T13:47:49.745Z,11120
2022-08-25T13:48:50.073Z,10618
2022-08-25T13:49:49.777Z,10909
2022-08-25T13:50:51.910Z,11955
2022-08-25T13:51:49.758Z,14909
2022-08-25T13:52:49.751Z,18282
2022-08-25T13:53:49.745Z,17995
2022-08-25T13:54:49.754Z,18796
2022-08-25T13:55:51.451Z,16935
2022-08-25T13:56:49.737Z,17608
2022-08-25T13:57:49.739Z,17090
2022-08-25T13:58:49.739Z,12325
2022-08-25T13:59:50.299Z,9204
2022-08-25T14:00:49.765Z,7997
2022-08-25T14:01:50.206Z,7995
2022-08-25T14:02:50.106Z,8189
2022-08-25T14:03:49.744Z,6932
2022-08-25T14:04:51.712Z,6535
2022-08-25T14:05:49.755Z,6329
2022-08-25T14:06:49.766Z,6226
2022-08-25T14:07:58.740Z,6226
2022-08-25T14:08:49.745Z,5809
2022-08-25T14:09:49.734Z,5621
2022-08-25T14:10:49.762Z,5542
2022-08-25T14:11:49.737Z,5839
2022-08-25T14:12:49.878Z,6523
2022-08-25T14:13:49.740Z,7328
2022-08-25T14:14:49.734Z,8701
2022-08-25T14:15:49.773Z,14625
2022-08-25T14:16:49.846Z,15482
2022-08-25T14:17:49.746Z,16627
2022-08-25T14:18:49.720Z,14795
2022-08-25T14:19:49.727Z,12546
2022-08-25T14:20:49.815Z,11385
2022-08-25T14:21:49.749Z,9442
2022-08-25T14:22:49.726Z,9472
2022-08-25T14:23:49.724Z,14782
2022-08-25T14:24:49.728Z,13307
2022-08-25T14:25:49.752Z,11691
2022-08-25T14:26:53.993Z,14094
2022-08-25T14:28:49.734Z,9676
2022-08-25T14:29:52.708Z,10452
2022-08-25T14:30:51.694Z,9798
2022-08-25T14:31:49.816Z,8760
2022-08-25T14:32:51.025Z,8956
2022-08-25T14:33:50.086Z,9752
2022-08-25T14:34:49.732Z,14856
2022-08-25T14:35:49.754Z,16472
2022-08-25T14:36:49.766Z,10530
2022-08-25T14:37:49.739Z,11461
2022-08-25T14:38:54.533Z,17388
2022-08-25T14:39:49.759Z,17412
2022-08-25T14:40:50.154Z,18188
2022-08-25T14:41:51.116Z,14806
2022-08-25T14:42:49.739Z,12738
2022-08-25T14:43:49.737Z,11383
2022-08-25T14:44:49.739Z,9761
2022-08-25T14:45:49.929Z,9136
2022-08-25T14:46:49.737Z,8371
2022-08-25T14:47:50.197Z,8296
2022-08-25T14:48:49.734Z,8489
2022-08-25T14:49:49.733Z,9051
2022-08-25T14:50:50.738Z,10865
2022-08-25T14:51:49.758Z,13459
2022-08-25T14:52:52.181Z,15136
2022-08-25T14:53:49.737Z,14957
2022-08-25T14:54:49.735Z,14144
2022-08-25T14:55:49.762Z,13177
2022-08-25T14:56:49.737Z,12797
2022-08-25T14:57:49.734Z,12498
2022-08-25T14:58:54.165Z,11193
2022-08-25T14:59:49.737Z,14417
2022-08-25T15:00:49.831Z,13381
2022-08-25T15:01:50.164Z,13453
2022-08-25T15:02:49.787Z,13556
2022-08-25T15:03:49.786Z,8451
2022-08-25T15:04:51.908Z,8235
2022-08-25T15:05:55.372Z,12375
2022-08-25T15:06:54.207Z,9839
2022-08-25T15:07:54.182Z,9839
2022-08-25T15:08:54.185Z,12388
2022-08-25T15:09:54.168Z,11378
2022-08-25T15:10:54.188Z,11866
2022-08-25T15:11:54.479Z,11695
2022-08-25T15:12:54.895Z,11420
2022-08-25T15:13:54.170Z,8198
2022-08-25T15:14:54.175Z,7621
2022-08-25T15:15:54.193Z,7335
2022-08-25T15:16:54.239Z,7494
2022-08-25T15:17:55.228Z,8030
2022-08-25T15:18:54.183Z,8891
2022-08-25T15:19:54.187Z,7470
2022-08-25T15:20:54.189Z,5105
2022-08-25T15:21:54.186Z,4572
2022-08-25T15:22:54.167Z,4060
2022-08-25T15:23:56.576Z,4335
2022-08-25T15:24:54.172Z,4631
2022-08-25T15:25:54.194Z,4790
2022-08-25T15:27:54.184Z,4681
2022-08-25T15:28:54.182Z,4090
2022-08-25T15:29:54.177Z,3756
2022-08-25T15:30:54.182Z,3706
2022-08-25T15:31:54.286Z,3920
2022-08-25T15:32:54.166Z,3933
2022-08-25T15:33:54.181Z,3920
2022-08-25T15:34:54.176Z,3745
2022-08-25T15:35:54.180Z,3938
2022-08-25T15:36:54.187Z,4191
2022-08-25T15:37:54.198Z,5221
2022-08-25T15:38:54.177Z,5612
2022-08-25T15:39:54.225Z,6768
2022-08-25T15:40:54.179Z,6864
2022-08-25T15:41:54.229Z,8307
2022-08-25T15:42:54.230Z,8493
2022-08-25T15:43:54.171Z,8366
2022-08-25T15:44:54.172Z,8071
2022-08-25T15:45:54.218Z,7758
2022-08-25T15:46:54.229Z,6888
2022-08-25T15:47:54.254Z,5057
2022-08-25T15:49:54.175Z,5113
2022-08-25T15:50:54.216Z,5575
2022-08-25T15:51:54.534Z,5608
2022-08-25T15:52:54.169Z,5505
2022-08-25T15:53:54.172Z,5266
2022-08-25T15:54:54.170Z,3977
2022-08-25T15:55:54.243Z,3850